sensor_id;sensor_type;location;lat;lon;timestamp;pressure;altitude;pressure_sealevel;temperature;humidity
64336;BME280;50672;53.362;-6.240;2023-01-29T00:02:06;103122.66;;;6.20;88.29
64336;BME280;50672;53.362;-6.240;2023-01-29T00:04:33;103115.50;;;6.19;88.07
64336;BME280;50672;53.362;-6.240;2023-01-29T00:07:00;103101.97;;;6.19;88.04
64336;BME280;50672;53.362;-6.240;2023-01-29T00:09:27;103110.88;;;6.21;87.93
64336;BME280;50672;53.362;-6.240;2023-01-29T00:11:54;103110.09;;;6.19;87.91
64336;BME280;50672;53.362;-6.240;2023-01-29T00:14:21;103103.75;;;6.20;88.20
64336;BME280;50672;53.362;-6.240;2023-01-29T00:16:48;103098.31;;;6.20;87.88
64336;BME280;50672;53.362;-6.240;2023-01-29T00:19:14;103107.41;;;6.19;87.71
64336;BME280;50672;53.362;-6.240;2023-01-29T00:21:41;103116.38;;;6.19;87.64
64336;BME280;50672;53.362;-6.240;2023-01-29T00:24:08;103114.56;;;6.20;87.70
64336;BME280;50672;53.362;-6.240;2023-01-29T00:26:36;103097.53;;;6.18;87.81
64336;BME280;50672;53.362;-6.240;2023-01-29T00:29:05;103098.38;;;6.18;87.64
64336;BME280;50672;53.362;-6.240;2023-01-29T00:31:31;103108.44;;;6.16;87.46
64336;BME280;50672;53.362;-6.240;2023-01-29T00:33:58;103107.50;;;6.17;87.50
64336;BME280;50672;53.362;-6.240;2023-01-29T00:36:26;103117.31;;;6.18;87.53
64336;BME280;50672;53.362;-6.240;2023-01-29T00:38:54;103111.84;;;6.20;87.54
64336;BME280;50672;53.362;-6.240;2023-01-29T00:41:29;103114.47;;;6.21;87.30
64336;BME280;50672;53.362;-6.240;2023-01-29T00:44:15;103116.28;;;6.21;87.26
64336;BME280;50672;53.362;-6.240;2023-01-29T00:47:01;103115.41;;;6.20;87.29
64336;BME280;50672;53.362;-6.240;2023-01-29T00:49:29;103110.97;;;6.19;87.21
64336;BME280;50672;53.362;-6.240;2023-01-29T00:52:03;103110.88;;;6.21;87.29
64336;BME280;50672;53.362;-6.240;2023-01-29T00:54:50;103112.72;;;6.20;87.18
64336;BME280;50672;53.362;-6.240;2023-01-29T00:57:17;103106.44;;;6.20;87.24
64336;BME280;50672;53.362;-6.240;2023-01-29T00:59:44;103110.00;;;6.20;87.13
64336;BME280;50672;53.362;-6.240;2023-01-29T01:02:10;103099.28;;;6.19;87.28
64336;BME280;50672;53.362;-6.240;2023-01-29T01:04:56;103086.72;;;6.18;87.28
64336;BME280;50672;53.362;-6.240;2023-01-29T01:07:23;103083.06;;;6.19;87.20
64336;BME280;50672;53.362;-6.240;2023-01-29T01:09:50;103080.44;;;6.17;87.13
64336;BME280;50672;53.362;-6.240;2023-01-29T01:12:35;103080.44;;;6.17;87.17
64336;BME280;50672;53.362;-6.240;2023-01-29T01:15:02;103082.25;;;6.16;86.89
64336;BME280;50672;53.362;-6.240;2023-01-29T01:17:29;103081.50;;;6.14;87.14
64336;BME280;50672;53.362;-6.240;2023-01-29T01:19:56;103084.28;;;6.13;87.23
64336;BME280;50672;53.362;-6.240;2023-01-29T01:22:23;103084.38;;;6.11;86.88
64336;BME280;50672;53.362;-6.240;2023-01-29T01:24:50;103083.38;;;6.12;87.12
64336;BME280;50672;53.362;-6.240;2023-01-29T01:27:17;103086.09;;;6.12;87.12
64336;BME280;50672;53.362;-6.240;2023-01-29T01:29:45;103070.84;;;6.11;87.00
64336;BME280;50672;53.362;-6.240;2023-01-29T01:32:12;103074.50;;;6.10;86.85
64336;BME280;50672;53.362;-6.240;2023-01-29T01:34:39;103069.28;;;6.07;86.99
64336;BME280;50672;53.362;-6.240;2023-01-29T01:37:06;103064.06;;;6.04;87.16
64336;BME280;50672;53.362;-6.240;2023-01-29T01:39:33;103052.53;;;6.01;87.02
64336;BME280;50672;53.362;-6.240;2023-01-29T01:42:00;103049.94;;;5.99;87.03
64336;BME280;50672;53.362;-6.240;2023-01-29T01:47:35;103048.25;;;5.96;86.91
64336;BME280;50672;53.362;-6.240;2023-01-29T01:50:09;103044.69;;;5.96;87.00
64336;BME280;50672;53.362;-6.240;2023-01-29T01:52:44;103048.19;;;5.98;86.92
64336;BME280;50672;53.362;-6.240;2023-01-29T01:55:13;103038.16;;;6.00;86.94
64336;BME280;50672;53.362;-6.240;2023-01-29T01:57:44;103040.88;;;6.00;86.81
64336;BME280;50672;53.362;-6.240;2023-01-29T02:00:15;103043.47;;;6.02;86.57
64336;BME280;50672;53.362;-6.240;2023-01-29T02:02:45;103049.75;;;6.02;86.47
64336;BME280;50672;53.362;-6.240;2023-01-29T02:05:32;103051.50;;;6.03;86.54
64336;BME280;50672;53.362;-6.240;2023-01-29T02:08:34;103048.88;;;6.02;86.50
64336;BME280;50672;53.362;-6.240;2023-01-29T02:11:22;103051.69;;;6.00;86.59
64336;BME280;50672;53.362;-6.240;2023-01-29T02:13:50;103057.16;;;5.98;86.39
64336;BME280;50672;53.362;-6.240;2023-01-29T02:16:20;103059.16;;;5.95;86.41
64336;BME280;50672;53.362;-6.240;2023-01-29T02:18:48;103053.84;;;5.93;86.44
64336;BME280;50672;53.362;-6.240;2023-01-29T02:27:14;103047.53;;;5.93;86.68
64336;BME280;50672;53.362;-6.240;2023-01-29T02:30:15;103036.81;;;5.91;86.71
64336;BME280;50672;53.362;-6.240;2023-01-29T02:32:56;103036.81;;;5.91;86.93
64336;BME280;50672;53.362;-6.240;2023-01-29T02:35:29;103026.09;;;5.90;86.84
64336;BME280;50672;53.362;-6.240;2023-01-29T02:40:54;103018.16;;;5.87;87.09
64336;BME280;50672;53.362;-6.240;2023-01-29T02:49:23;102995.69;;;5.86;87.23
64336;BME280;50672;53.362;-6.240;2023-01-29T02:52:17;102990.34;;;5.85;87.12
64336;BME280;50672;53.362;-6.240;2023-01-29T02:55:11;102979.47;;;5.86;87.03
64336;BME280;50672;53.362;-6.240;2023-01-29T02:57:42;102982.94;;;5.88;87.18
64336;BME280;50672;53.362;-6.240;2023-01-29T03:00:15;102986.59;;;5.87;87.24
64336;BME280;50672;53.362;-6.240;2023-01-29T03:03:01;102984.78;;;5.88;86.94
64336;BME280;50672;53.362;-6.240;2023-01-29T03:08:27;102979.28;;;5.89;86.72
64336;BME280;50672;53.362;-6.240;2023-01-29T03:11:05;102988.34;;;5.88;86.82
64336;BME280;50672;53.362;-6.240;2023-01-29T03:13:46;102975.78;;;5.87;86.92
64336;BME280;50672;53.362;-6.240;2023-01-29T03:18:49;102976.81;;;5.85;86.74
64336;BME280;50672;53.362;-6.240;2023-01-29T03:21:26;102963.59;;;5.80;86.84
64336;BME280;50672;53.362;-6.240;2023-01-29T03:24:16;102960.47;;;5.72;86.72
64336;BME280;50672;53.362;-6.240;2023-01-29T03:27:07;102959.16;;;5.63;86.82
64336;BME280;50672;53.362;-6.240;2023-01-29T03:29:55;102955.84;;;5.58;86.80
64336;BME280;50672;53.362;-6.240;2023-01-29T03:32:43;102958.75;;;5.55;86.75
64336;BME280;50672;53.362;-6.240;2023-01-29T03:35:13;102964.31;;;5.52;86.98
64336;BME280;50672;53.362;-6.240;2023-01-29T03:37:47;102951.78;;;5.51;86.85
64336;BME280;50672;53.362;-6.240;2023-01-29T03:40:14;102957.97;;;5.53;86.91
64336;BME280;50672;53.362;-6.240;2023-01-29T03:54:04;102934.69;;;5.50;86.82
64336;BME280;50672;53.362;-6.240;2023-01-29T03:57:01;102928.25;;;5.53;86.59
64336;BME280;50672;53.362;-6.240;2023-01-29T04:02:35;102921.78;;;5.55;86.29
64336;BME280;50672;53.362;-6.240;2023-01-29T04:05:08;102914.75;;;5.53;86.24
64336;BME280;50672;53.362;-6.240;2023-01-29T04:07:39;102899.06;;;5.43;86.02
64336;BME280;50672;53.362;-6.240;2023-01-29T04:10:15;102897.88;;;5.33;85.96
64336;BME280;50672;53.362;-6.240;2023-01-29T04:15:13;102895.06;;;5.19;85.58
64336;BME280;50672;53.362;-6.240;2023-01-29T04:17:46;102892.72;;;5.12;85.62
64336;BME280;50672;53.362;-6.240;2023-01-29T04:20:15;102892.91;;;5.09;85.39
64336;BME280;50672;53.362;-6.240;2023-01-29T04:22:48;102893.75;;;5.10;85.51
64336;BME280;50672;53.362;-6.240;2023-01-29T04:25:16;102879.31;;;5.11;85.22
64336;BME280;50672;53.362;-6.240;2023-01-29T04:28:09;102883.75;;;5.12;85.21
64336;BME280;50672;53.362;-6.240;2023-01-29T04:30:52;102880.34;;;5.08;85.06
64336;BME280;50672;53.362;-6.240;2023-01-29T04:41:29;102877.63;;;4.92;84.83
64336;BME280;50672;53.362;-6.240;2023-01-29T04:46:41;102874.94;;;4.92;84.74
64336;BME280;50672;53.362;-6.240;2023-01-29T04:51:48;102854.34;;;4.91;84.47
64336;BME280;50672;53.362;-6.240;2023-01-29T04:54:41;102856.31;;;4.88;84.28
64336;BME280;50672;53.362;-6.240;2023-01-29T04:57:19;102859.00;;;4.88;84.40
64336;BME280;50672;53.362;-6.240;2023-01-29T05:02:36;102864.69;;;4.83;84.13
64336;BME280;50672;53.362;-6.240;2023-01-29T05:05:06;102862.94;;;4.82;84.16
64336;BME280;50672;53.362;-6.240;2023-01-29T05:07:35;102869.19;;;4.83;83.92
64336;BME280;50672;53.362;-6.240;2023-01-29T05:10:06;102861.19;;;4.81;84.17
64336;BME280;50672;53.362;-6.240;2023-01-29T05:12:35;102850.56;;;4.78;83.95
64336;BME280;50672;53.362;-6.240;2023-01-29T05:15:08;102856.75;;;4.80;83.86
64336;BME280;50672;53.362;-6.240;2023-01-29T05:17:36;102853.09;;;4.81;83.89
64336;BME280;50672;53.362;-6.240;2023-01-29T05:20:03;102848.66;;;4.80;83.90
64336;BME280;50672;53.362;-6.240;2023-01-29T05:22:30;102846.66;;;4.84;83.67
64336;BME280;50672;53.362;-6.240;2023-01-29T05:24:57;102845.69;;;4.85;83.62
64336;BME280;50672;53.362;-6.240;2023-01-29T05:27:30;102830.19;;;4.88;83.59
64336;BME280;50672;53.362;-6.240;2023-01-29T05:30:18;102833.69;;;4.90;83.68
64336;BME280;50672;53.362;-6.240;2023-01-29T05:32:45;102830.91;;;4.92;83.61
64336;BME280;50672;53.362;-6.240;2023-01-29T05:35:12;102827.25;;;4.93;83.58
64336;BME280;50672;53.362;-6.240;2023-01-29T05:37:39;102818.88;;;4.97;83.39
64336;BME280;50672;53.362;-6.240;2023-01-29T05:40:07;102829.50;;;5.01;83.37
64336;BME280;50672;53.362;-6.240;2023-01-29T05:42:37;102822.88;;;5.06;83.26
64336;BME280;50672;53.362;-6.240;2023-01-29T05:45:04;102818.00;;;5.13;83.35
64336;BME280;50672;53.362;-6.240;2023-01-29T05:47:31;102820.38;;;5.19;83.35
64336;BME280;50672;53.362;-6.240;2023-01-29T05:49:58;102816.44;;;5.25;83.34
64336;BME280;50672;53.362;-6.240;2023-01-29T05:52:25;102818.75;;;5.31;83.46
64336;BME280;50672;53.362;-6.240;2023-01-29T05:54:51;102817.63;;;5.35;83.21
64336;BME280;50672;53.362;-6.240;2023-01-29T05:57:18;102819.19;;;5.39;83.00
64336;BME280;50672;53.362;-6.240;2023-01-29T05:59:45;102817.25;;;5.41;83.16
64336;BME280;50672;53.362;-6.240;2023-01-29T06:02:12;102824.50;;;5.41;83.31
64336;BME280;50672;53.362;-6.240;2023-01-29T06:04:38;102820.94;;;5.40;83.01
64336;BME280;50672;53.362;-6.240;2023-01-29T06:07:05;102823.63;;;5.40;83.18
64336;BME280;50672;53.362;-6.240;2023-01-29T06:09:32;102805.59;;;5.41;83.27
64336;BME280;50672;53.362;-6.240;2023-01-29T06:11:59;102811.06;;;5.39;83.09
64336;BME280;50672;53.362;-6.240;2023-01-29T06:14:25;102807.53;;;5.39;83.25
64336;BME280;50672;53.362;-6.240;2023-01-29T06:16:52;102803.94;;;5.38;83.39
64336;BME280;50672;53.362;-6.240;2023-01-29T06:19:19;102806.81;;;5.35;83.68
64336;BME280;50672;53.362;-6.240;2023-01-29T06:21:46;102808.56;;;5.36;83.43
64336;BME280;50672;53.362;-6.240;2023-01-29T06:24:13;102806.81;;;5.35;83.69
64336;BME280;50672;53.362;-6.240;2023-01-29T06:26:40;102806.81;;;5.35;83.62
64336;BME280;50672;53.362;-6.240;2023-01-29T06:29:07;102806.72;;;5.37;83.69
64336;BME280;50672;53.362;-6.240;2023-01-29T06:31:33;102802.28;;;5.36;83.77
64336;BME280;50672;53.362;-6.240;2023-01-29T06:34:07;102803.94;;;5.38;83.65
64336;BME280;50672;53.362;-6.240;2023-01-29T06:36:35;102797.66;;;5.38;83.87
64336;BME280;50672;53.362;-6.240;2023-01-29T06:39:02;102794.88;;;5.39;84.11
64336;BME280;50672;53.362;-6.240;2023-01-29T06:41:29;102802.97;;;5.39;84.28
64336;BME280;50672;53.362;-6.240;2023-01-29T06:43:56;102799.50;;;5.37;84.19
64336;BME280;50672;53.362;-6.240;2023-01-29T06:46:23;102808.38;;;5.39;84.22
64336;BME280;50672;53.362;-6.240;2023-01-29T06:48:50;102795.72;;;5.40;84.18
64336;BME280;50672;53.362;-6.240;2023-01-29T06:51:16;102799.31;;;5.40;84.35
64336;BME280;50672;53.362;-6.240;2023-01-29T06:53:43;102799.31;;;5.40;84.56
64336;BME280;50672;53.362;-6.240;2023-01-29T06:56:12;102788.53;;;5.40;84.52
64336;BME280;50672;53.362;-6.240;2023-01-29T06:58:38;102794.69;;;5.42;84.48
64336;BME280;50672;53.362;-6.240;2023-01-29T07:01:10;102786.50;;;5.44;84.69
64336;BME280;50672;53.362;-6.240;2023-01-29T07:03:54;102785.53;;;5.45;84.74
64336;BME280;50672;53.362;-6.240;2023-01-29T07:06:29;102789.97;;;5.46;84.83
64336;BME280;50672;53.362;-6.240;2023-01-29T07:08:56;102789.03;;;5.47;84.89
64336;BME280;50672;53.362;-6.240;2023-01-29T07:11:23;102789.19;;;5.44;84.95
64336;BME280;50672;53.362;-6.240;2023-01-29T07:13:50;102774.72;;;5.45;84.65
64336;BME280;50672;53.362;-6.240;2023-01-29T07:16:16;102766.53;;;5.46;85.01
64336;BME280;50672;53.362;-6.240;2023-01-29T07:18:45;102771.84;;;5.48;85.35
64336;BME280;50672;53.362;-6.240;2023-01-29T07:21:12;102771.84;;;5.48;85.28
64336;BME280;50672;53.362;-6.240;2023-01-29T07:23:38;102760.09;;;5.49;85.24
64336;BME280;50672;53.362;-6.240;2023-01-29T07:26:05;102743.03;;;5.48;85.19
64336;BME280;50672;53.362;-6.240;2023-01-29T07:28:36;102745.81;;;5.47;85.58
64336;BME280;50672;53.362;-6.240;2023-01-29T07:31:04;102745.22;;;5.42;85.61
64336;BME280;50672;53.362;-6.240;2023-01-29T07:33:31;102743.66;;;5.38;85.71
64336;BME280;50672;53.362;-6.240;2023-01-29T07:35:58;102746.44;;;5.36;85.61
64336;BME280;50672;53.362;-6.240;2023-01-29T07:38:25;102752.81;;;5.35;85.92
64336;BME280;50672;53.362;-6.240;2023-01-29T07:40:52;102744.72;;;5.35;85.97
64336;BME280;50672;53.362;-6.240;2023-01-29T07:43:19;102748.19;;;5.37;86.21
64336;BME280;50672;53.362;-6.240;2023-01-29T07:45:46;102743.56;;;5.39;86.39
64336;BME280;50672;53.362;-6.240;2023-01-29T07:48:13;102747.22;;;5.38;86.21
64336;BME280;50672;53.362;-6.240;2023-01-29T07:50:40;102739.13;;;5.38;86.24
64336;BME280;50672;53.362;-6.240;2023-01-29T07:53:13;102732.75;;;5.39;86.54
64336;BME280;50672;53.362;-6.240;2023-01-29T07:55:43;102731.81;;;5.40;86.76
64336;BME280;50672;53.362;-6.240;2023-01-29T07:58:10;102729.88;;;5.42;86.60
64336;BME280;50672;53.362;-6.240;2023-01-29T08:00:37;102732.38;;;5.45;86.91
64336;BME280;50672;53.362;-6.240;2023-01-29T08:03:06;102733.94;;;5.50;86.68
64336;BME280;50672;53.362;-6.240;2023-01-29T08:05:35;102736.53;;;5.51;86.88
64336;BME280;50672;53.362;-6.240;2023-01-29T08:08:02;102729.22;;;5.53;87.06
64336;BME280;50672;53.362;-6.240;2023-01-29T08:10:34;102725.47;;;5.56;87.12
64336;BME280;50672;53.362;-6.240;2023-01-29T08:13:02;102713.72;;;5.57;87.17
64336;BME280;50672;53.362;-6.240;2023-01-29T08:15:29;102728.16;;;5.56;87.52
64336;BME280;50672;53.362;-6.240;2023-01-29T08:17:56;102729.91;;;5.57;87.16
64336;BME280;50672;53.362;-6.240;2023-01-29T08:20:24;102730.59;;;5.60;87.10
64336;BME280;50672;53.362;-6.240;2023-01-29T08:23:02;102729.34;;;5.66;87.18
64336;BME280;50672;53.362;-6.240;2023-01-29T08:25:30;102727.41;;;5.68;87.39
64336;BME280;50672;53.362;-6.240;2023-01-29T08:27:58;102723.72;;;5.69;87.40
64336;BME280;50672;53.362;-6.240;2023-01-29T08:30:27;102726.28;;;5.72;87.30
64336;BME280;50672;53.362;-6.240;2023-01-29T08:32:54;102722.47;;;5.75;87.42
64336;BME280;50672;53.362;-6.240;2023-01-29T08:35:21;102727.72;;;5.78;87.29
64336;BME280;50672;53.362;-6.240;2023-01-29T08:37:55;102732.06;;;5.80;87.48
64336;BME280;50672;53.362;-6.240;2023-01-29T08:40:24;102736.28;;;5.85;87.46
64336;BME280;50672;53.362;-6.240;2023-01-29T08:42:51;102733.53;;;5.86;87.50
64336;BME280;50672;53.362;-6.240;2023-01-29T08:45:18;102735.13;;;5.89;87.46
64336;BME280;50672;53.362;-6.240;2023-01-29T08:47:46;102739.59;;;5.90;87.74
64336;BME280;50672;53.362;-6.240;2023-01-29T08:50:14;102746.63;;;5.92;87.33
64336;BME280;50672;53.362;-6.240;2023-01-29T08:52:42;102742.88;;;5.95;87.70
64336;BME280;50672;53.362;-6.240;2023-01-29T08:55:10;102735.53;;;5.97;87.56
64336;BME280;50672;53.362;-6.240;2023-01-29T08:57:37;102744.34;;;6.01;87.42
64336;BME280;50672;53.362;-6.240;2023-01-29T09:00:06;102738.84;;;6.02;87.78
64336;BME280;50672;53.362;-6.240;2023-01-29T09:02:34;102734.22;;;6.04;87.45
64336;BME280;50672;53.362;-6.240;2023-01-29T09:05:01;102733.25;;;6.05;87.74
64336;BME280;50672;53.362;-6.240;2023-01-29T09:07:28;102730.34;;;6.08;87.47
64336;BME280;50672;53.362;-6.240;2023-01-29T09:09:55;102740.19;;;6.09;87.68
64336;BME280;50672;53.362;-6.240;2023-01-29T09:12:21;102731.03;;;6.12;87.55
64336;BME280;50672;53.362;-6.240;2023-01-29T09:14:48;102735.28;;;6.16;87.72
64336;BME280;50672;53.362;-6.240;2023-01-29T09:17:15;102740.38;;;6.21;87.68
64336;BME280;50672;53.362;-6.240;2023-01-29T09:19:42;102746.56;;;6.23;87.67
64336;BME280;50672;53.362;-6.240;2023-01-29T09:22:09;102734.59;;;6.27;87.97
64336;BME280;50672;53.362;-6.240;2023-01-29T09:24:37;102731.69;;;6.30;87.91
64336;BME280;50672;53.362;-6.240;2023-01-29T09:27:04;102736.91;;;6.33;87.66
64336;BME280;50672;53.362;-6.240;2023-01-29T09:29:31;102733.88;;;6.38;87.68
64336;BME280;50672;53.362;-6.240;2023-01-29T09:32:03;102739.28;;;6.38;87.95
64336;BME280;50672;53.362;-6.240;2023-01-29T09:34:30;102738.22;;;6.40;88.01
64336;BME280;50672;53.362;-6.240;2023-01-29T09:36:57;102741.72;;;6.42;87.67
64336;BME280;50672;53.362;-6.240;2023-01-29T09:39:24;102740.56;;;6.46;87.70
64336;BME280;50672;53.362;-6.240;2023-01-29T09:45:14;102733.88;;;6.52;87.77
64336;BME280;50672;53.362;-6.240;2023-01-29T09:47:43;102734.72;;;6.53;87.92
64336;BME280;50672;53.362;-6.240;2023-01-29T09:50:40;102739.09;;;6.55;87.84
64336;BME280;50672;53.362;-6.240;2023-01-29T09:56:13;102742.66;;;6.56;88.04
64336;BME280;50672;53.362;-6.240;2023-01-29T09:58:43;102743.44;;;6.58;88.04
64336;BME280;50672;53.362;-6.240;2023-01-29T10:08:02;102736.28;;;6.57;87.76
64336;BME280;50672;53.362;-6.240;2023-01-29T10:10:23;102725.66;;;6.54;88.05
64336;BME280;50672;53.362;-6.240;2023-01-29T10:15:37;102718.50;;;6.53;88.05
64336;BME280;50672;53.362;-6.240;2023-01-29T10:23:54;102726.22;;;6.59;88.08
64336;BME280;50672;53.362;-6.240;2023-01-29T10:26:25;102733.34;;;6.60;87.89
64336;BME280;50672;53.362;-6.240;2023-01-29T10:28:55;102726.03;;;6.62;87.98
64336;BME280;50672;53.362;-6.240;2023-01-29T10:31:31;102720.50;;;6.63;87.97
64336;BME280;50672;53.362;-6.240;2023-01-29T10:36:44;102723.38;;;6.75;87.78
64336;BME280;50672;53.362;-6.240;2023-01-29T10:39:15;102718.44;;;6.81;87.83
64336;BME280;50672;53.362;-6.240;2023-01-29T10:42:13;102724.09;;;6.91;88.06
64336;BME280;50672;53.362;-6.240;2023-01-29T10:45:04;102696.59;;;6.97;87.85
64336;BME280;50672;53.362;-6.240;2023-01-29T10:55:52;102692.59;;;7.03;87.85
64336;BME280;50672;53.362;-6.240;2023-01-29T11:01:01;102680.81;;;7.04;87.80
64336;BME280;50672;53.362;-6.240;2023-01-29T11:03:30;102674.00;;;7.11;87.83
64336;BME280;50672;53.362;-6.240;2023-01-29T11:08:53;102684.72;;;7.13;88.03
64336;BME280;50672;53.362;-6.240;2023-01-29T11:11:38;102673.78;;;7.14;87.98
64336;BME280;50672;53.362;-6.240;2023-01-29T11:14:12;102678.34;;;7.14;87.87
64336;BME280;50672;53.362;-6.240;2023-01-29T11:16:45;102666.75;;;7.12;87.71
64336;BME280;50672;53.362;-6.240;2023-01-29T11:19:14;102674.00;;;7.11;88.18
64336;BME280;50672;53.362;-6.240;2023-01-29T11:21:57;102664.16;;;7.10;88.01
64336;BME280;50672;53.362;-6.240;2023-01-29T11:24:26;102658.75;;;7.10;88.22
64336;BME280;50672;53.362;-6.240;2023-01-29T11:27:12;102647.91;;;7.10;87.96
64336;BME280;50672;53.362;-6.240;2023-01-29T11:29:46;102643.47;;;7.09;87.86
64336;BME280;50672;53.362;-6.240;2023-01-29T11:32:24;102640.63;;;7.11;88.30
64336;BME280;50672;53.362;-6.240;2023-01-29T11:37:36;102631.44;;;7.13;88.07
64336;BME280;50672;53.362;-6.240;2023-01-29T11:42:49;102620.72;;;7.25;88.37
64336;BME280;50672;53.362;-6.240;2023-01-29T11:47:52;102620.09;;;7.34;88.25
64336;BME280;50672;53.362;-6.240;2023-01-29T11:50:23;102609.66;;;7.41;88.28
64336;BME280;50672;53.362;-6.240;2023-01-29T11:52:50;102602.94;;;7.46;88.33
64336;BME280;50672;53.362;-6.240;2023-01-29T11:55:25;102585.28;;;7.53;88.49
64336;BME280;50672;53.362;-6.240;2023-01-29T12:00:49;102577.00;;;7.68;88.07
64336;BME280;50672;53.362;-6.240;2023-01-29T12:03:36;102570.47;;;7.83;88.10
64336;BME280;50672;53.362;-6.240;2023-01-29T12:06:21;102567.16;;;8.04;88.28
64336;BME280;50672;53.362;-6.240;2023-01-29T12:08:59;102557.63;;;8.23;87.85
64336;BME280;50672;53.362;-6.240;2023-01-29T12:11:32;102559.78;;;8.30;87.91
64336;BME280;50672;53.362;-6.240;2023-01-29T12:14:04;102548.81;;;8.32;87.90
64336;BME280;50672;53.362;-6.240;2023-01-29T12:19:53;102537.97;;;8.32;87.77
64336;BME280;50672;53.362;-6.240;2023-01-29T12:22:22;102524.59;;;8.29;87.22
64336;BME280;50672;53.362;-6.240;2023-01-29T12:24:57;102514.63;;;8.29;87.50
64336;BME280;50672;53.362;-6.240;2023-01-29T12:28:00;102507.22;;;8.31;87.39
64336;BME280;50672;53.362;-6.240;2023-01-29T12:30:40;102499.31;;;8.28;87.21
64336;BME280;50672;53.362;-6.240;2023-01-29T12:33:27;102480.72;;;8.35;87.14
64336;BME280;50672;53.362;-6.240;2023-01-29T12:36:14;102481.88;;;8.44;87.17
64336;BME280;50672;53.362;-6.240;2023-01-29T12:38:43;102479.09;;;8.57;87.25
64336;BME280;50672;53.362;-6.240;2023-01-29T12:41:32;102464.81;;;8.66;86.86
64336;BME280;50672;53.362;-6.240;2023-01-29T12:44:09;102469.03;;;8.81;87.14
64336;BME280;50672;53.362;-6.240;2023-01-29T12:46:40;102466.69;;;8.99;86.65
64336;BME280;50672;53.362;-6.240;2023-01-29T12:49:14;102463.38;;;9.07;86.73
64336;BME280;50672;53.362;-6.240;2023-01-29T12:51:54;102453.47;;;9.17;86.63
64336;BME280;50672;53.362;-6.240;2023-01-29T12:54:39;102446.69;;;9.23;86.15
64336;BME280;50672;53.362;-6.240;2023-01-29T13:00:09;102439.59;;;9.43;85.87
64336;BME280;50672;53.362;-6.240;2023-01-29T13:02:48;102437.72;;;9.66;86.02
64336;BME280;50672;53.362;-6.240;2023-01-29T13:05:28;102420.84;;;9.84;85.84
64336;BME280;50672;53.362;-6.240;2023-01-29T13:08:02;102420.19;;;9.91;85.20
64336;BME280;50672;53.362;-6.240;2023-01-29T13:10:40;102396.97;;;9.87;85.23
64336;BME280;50672;53.362;-6.240;2023-01-29T13:16:37;102394.03;;;9.79;84.59
64336;BME280;50672;53.362;-6.240;2023-01-29T13:19:26;102376.25;;;9.75;84.45
64336;BME280;50672;53.362;-6.240;2023-01-29T13:21:58;102371.69;;;9.75;84.67
64336;BME280;50672;53.362;-6.240;2023-01-29T13:24:34;102375.75;;;9.81;84.60
64336;BME280;50672;53.362;-6.240;2023-01-29T13:27:03;102355.69;;;9.82;84.58
64336;BME280;50672;53.362;-6.240;2023-01-29T13:29:32;102357.16;;;9.86;84.08
64336;BME280;50672;53.362;-6.240;2023-01-29T13:32:00;102349.59;;;9.90;84.24
64336;BME280;50672;53.362;-6.240;2023-01-29T13:34:31;102344.63;;;9.95;84.32
64336;BME280;50672;53.362;-6.240;2023-01-29T13:37:08;102342.63;;;9.97;83.96
64336;BME280;50672;53.362;-6.240;2023-01-29T13:39:45;102337.19;;;9.97;84.04
64336;BME280;50672;53.362;-6.240;2023-01-29T13:42:23;102336.47;;;9.95;83.90
64336;BME280;50672;53.362;-6.240;2023-01-29T13:44:53;102343.81;;;10.04;83.66
64336;BME280;50672;53.362;-6.240;2023-01-29T13:47:29;102336.19;;;10.19;83.64
64336;BME280;50672;53.362;-6.240;2023-01-29T13:53:00;102319.50;;;10.34;83.56
64336;BME280;50672;53.362;-6.240;2023-01-29T13:55:32;102314.59;;;10.49;83.51
64336;BME280;50672;53.362;-6.240;2023-01-29T13:58:16;102305.44;;;10.50;82.86
64336;BME280;50672;53.362;-6.240;2023-01-29T14:10:36;102288.59;;;10.35;82.43
64336;BME280;50672;53.362;-6.240;2023-01-29T14:15:49;102267.88;;;10.22;81.82
64336;BME280;50672;53.362;-6.240;2023-01-29T14:18:33;102267.22;;;10.30;81.72
64336;BME280;50672;53.362;-6.240;2023-01-29T14:23:47;102230.34;;;10.47;81.58
64336;BME280;50672;53.362;-6.240;2023-01-29T14:26:41;102221.22;;;10.58;81.46
64336;BME280;50672;53.362;-6.240;2023-01-29T14:29:27;102214.75;;;10.59;81.21
64336;BME280;50672;53.362;-6.240;2023-01-29T14:34:35;102196.59;;;10.79;80.78
64336;BME280;50672;53.362;-6.240;2023-01-29T14:37:20;102184.41;;;10.73;80.24
64336;BME280;50672;53.362;-6.240;2023-01-29T14:39:49;102171.34;;;10.57;80.48
64336;BME280;50672;53.362;-6.240;2023-01-29T14:44:57;102177.88;;;10.35;80.18
64336;BME280;50672;53.362;-6.240;2023-01-29T14:58:15;102196.44;;;10.20;79.33
64336;BME280;50672;53.362;-6.240;2023-01-29T15:00:49;102179.94;;;10.12;79.70
64336;BME280;50672;53.362;-6.240;2023-01-29T15:03:41;102204.22;;;10.04;79.43
64336;BME280;50672;53.362;-6.240;2023-01-29T15:06:17;102208.22;;;10.00;79.50
64336;BME280;50672;53.362;-6.240;2023-01-29T15:08:52;102224.06;;;9.95;79.96
64336;BME280;50672;53.362;-6.240;2023-01-29T15:17:29;102203.16;;;9.85;80.07
64336;BME280;50672;53.362;-6.240;2023-01-29T15:19:58;102195.97;;;9.84;79.99
64336;BME280;50672;53.362;-6.240;2023-01-29T15:22:25;102191.19;;;9.98;80.22
64336;BME280;50672;53.362;-6.240;2023-01-29T15:25:05;102177.03;;;10.04;80.09
64336;BME280;50672;53.362;-6.240;2023-01-29T15:27:33;102176.03;;;10.05;79.84
64336;BME280;50672;53.362;-6.240;2023-01-29T15:30:03;102183.59;;;10.01;80.00
64336;BME280;50672;53.362;-6.240;2023-01-29T15:32:36;102183.41;;;9.93;79.66
64336;BME280;50672;53.362;-6.240;2023-01-29T15:35:07;102195.41;;;9.90;79.66
64336;BME280;50672;53.362;-6.240;2023-01-29T15:37:36;102218.91;;;9.91;79.38
64336;BME280;50672;53.362;-6.240;2023-01-29T15:40:04;102210.63;;;9.93;79.41
64336;BME280;50672;53.362;-6.240;2023-01-29T15:42:44;102216.66;;;9.97;79.10
64336;BME280;50672;53.362;-6.240;2023-01-29T15:45:30;102213.38;;;10.03;79.00
64336;BME280;50672;53.362;-6.240;2023-01-29T15:48:01;102210.53;;;10.04;79.17
64336;BME280;50672;53.362;-6.240;2023-01-29T15:50:29;102215.72;;;10.07;78.71
64336;BME280;50672;53.362;-6.240;2023-01-29T15:52:59;102226.88;;;10.14;78.65